Portada
METAR-TAF:

METAR-TAF

Aeropuertos :

Lar, Irán

latitud: 27-40-26N, longitud: 054-22-53E, altitud: 792 m

Observación

El informe se hizo hace 48 minutos, a las 11:00 UTC
Viento 8 kt del oeste
Temperatura 31°C
Humedad 16%
Presión 1011 hPa
Visibilidad 10 km o más
Escasas nubes a una altura de 4000 ft
Cielo nuboso a una altura de 10000 ft

METAR: OISL 161100Z 26008KT 9999 FEW040 BKN100 31/02 Q1011 NOSIG

Hora: 16:18 (11:48 UTC)

Pronóstico

El informe se hizo hace 38 minutos, a las 11:10 UTC
Pronóstico válido del 16 a las 12 UTC al 17 a las 18 UTC
Viento 8 kt del oeste
Visibilidad: 8000 m
Temporalmente
del 16 a las 12 UTC al 16 a las 16 UTC
Viento 18 kt del oeste

TAF: OISL 161110Z 1612/1718 28008KT 8000 NSC TEMPO 1612/1616 27018KT

Observaciones y pronósticos meteorológicos de más de 4000 aeropuertos (mensajes METAR y TAF).

Los puntos amarillos y rojos representan las estaciones disponibles.

Ponga el ratón en el punto deseado para ver el nombre de la estación.

Haga clic para ver las observaciones y los pronósticos meteorológicos.

Para cambiar el mapa : haga clic en los botones verdes con una cruz de color negro para hacer un zoom, en el botón verde con un guión para alejar o en las flechas verdes para mapas adyacentes.


METAR-TAF: